Time;durP1;ratioP1;P1;durP2;ratioP2;P2;SDS_P1;SDS_P2;PMS_P1;PMS_P2;Temp;Humidity;BMP_temperature;BMP_pressure;BME280_temperature;BME280_humidity;BME280_pressure;Samples;Min_cycle;Max_cycle;Signal;HPM_P1;HPM_P2
2022/04/01 00:00:33;;;;;;;7.83;3.53;;;4.70;93.60;;;;;;5051217;28;20279;-77
2022/04/01 00:02:59;;;;;;;8.50;3.47;;;4.70;93.90;;;;;;5051812;28;20213;-77
2022/04/01 00:05:24;;;;;;;5.90;3.40;;;4.70;94.40;;;;;;5054091;28;20209;-79
2022/04/01 00:07:50;;;;;;;7.03;3.50;;;4.70;94.70;;;;;;5053266;28;20207;-79
2022/04/01 00:10:16;;;;;;;6.17;3.43;;;4.60;95.00;;;;;;5051830;28;20255;-77
2022/04/01 00:12:46;;;;;;;5.20;3.37;;;4.60;95.10;;;;;;5052012;28;20574;-77
2022/04/01 00:15:13;;;;;;;10.97;3.80;;;4.60;95.70;;;;;;5052909;28;20288;-78
2022/04/01 00:17:43;;;;;;;6.93;3.37;;;4.50;95.60;;;;;;5050430;28;20205;-76
2022/04/01 00:20:13;;;;;;;5.70;3.37;;;4.30;95.60;;;;;;5051643;28;20199;-78
2022/04/01 00:22:39;;;;;;;5.37;3.30;;;4.20;95.90;;;;;;5050302;28;20225;-78
2022/04/01 00:25:05;;;;;;;8.47;3.83;;;4.20;96.10;;;;;;5050616;28;20296;-78
2022/04/01 00:27:31;;;;;;;6.50;2.93;;;4.10;96.30;;;;;;5050760;28;20694;-78
2022/04/01 00:29:56;;;;;;;6.40;3.70;;;4.10;96.40;;;;;;5051270;28;20290;-79
2022/04/01 00:32:22;;;;;;;6.17;3.50;;;4.00;96.60;;;;;;5050309;28;20212;-77
2022/04/01 00:34:49;;;;;;;4.93;3.33;;;4.00;96.70;;;;;;5051952;28;20218;-78
2022/04/01 00:37:14;;;;;;;6.33;3.47;;;3.90;96.90;;;;;;5051706;28;20212;-79
2022/04/01 00:39:40;;;;;;;11.33;3.50;;;3.90;97.00;;;;;;5050423;28;20211;-76
2022/04/01 00:42:06;;;;;;;9.20;3.50;;;3.80;97.10;;;;;;5050683;28;20191;-78
2022/04/01 00:44:33;;;;;;;6.50;3.80;;;3.80;97.30;;;;;;5050163;28;20208;-78
2022/04/01 00:47:08;;;;;;;7.43;3.57;;;3.90;97.10;;;;;;5050027;28;20208;-78
2022/04/01 00:49:34;;;;;;;4.93;3.20;;;3.80;97.30;;;;;;5050448;28;20211;-77
2022/04/01 00:52:03;;;;;;;6.20;3.13;;;3.80;97.40;;;;;;5051051;28;20273;-78
2022/04/01 00:54:29;;;;;;;7.73;3.30;;;3.70;97.40;;;;;;5051400;28;20712;-78
2022/04/01 00:56:55;;;;;;;5.23;2.90;;;3.80;97.60;;;;;;5051204;28;20290;-78
2022/04/01 00:59:22;;;;;;;6.60;3.90;;;3.80;97.50;;;;;;5050504;28;20266;-77
2022/04/01 01:01:49;;;;;;;7.83;3.57;;;3.80;97.50;;;;;;5051092;28;20242;-78
2022/04/01 01:04:16;;;;;;;7.90;3.30;;;3.80;97.60;;;;;;5051181;28;20207;-78
2022/04/01 01:06:50;;;;;;;5.67;3.00;;;3.80;97.50;;;;;;5050573;28;20607;-77
2022/04/01 01:09:16;;;;;;;8.07;3.03;;;3.60;97.70;;;;;;5049838;28;20183;-78
2022/04/01 01:11:45;;;;;;;9.63;3.67;;;3.70;98.00;;;;;;5050404;28;20209;-78
2022/04/01 01:14:13;;;;;;;6.70;3.10;;;3.70;98.00;;;;;;5051227;28;20215;-77
2022/04/01 01:16:44;;;;;;;6.67;2.97;;;3.70;98.00;;;;;;5051348;28;20277;-78
2022/04/01 01:19:15;;;;;;;6.53;3.00;;;3.60;98.10;;;;;;5049187;28;20211;-78
2022/04/01 01:21:42;;;;;;;8.23;3.57;;;3.50;98.20;;;;;;5048963;28;20186;-78
2022/04/01 01:24:16;;;;;;;8.33;3.10;;;3.50;98.30;;;;;;5050321;28;20549;-78
2022/04/01 01:26:53;;;;;;;6.17;3.73;;;3.50;98.30;;;;;;5050705;28;20290;-79
2022/04/01 01:29:22;;;;;;;6.30;3.60;;;3.50;98.10;;;;;;5048881;28;20210;-79
2022/04/01 01:31:48;;;;;;;5.97;3.50;;;3.40;98.40;;;;;;5050962;28;20627;-79
2022/04/01 01:34:16;;;;;;;10.77;3.40;;;3.40;98.50;;;;;;5050775;28;20207;-78
2022/04/01 01:36:41;;;;;;;5.80;3.03;;;3.40;98.60;;;;;;5050436;28;20230;-78
2022/04/01 01:39:07;;;;;;;5.57;3.00;;;3.40;98.70;;;;;;5047603;28;20641;-78
2022/04/01 01:41:32;;;;;;;5.30;2.87;;;3.40;98.90;;;;;;5050543;28;20199;-78
2022/04/01 01:43:59;;;;;;;4.90;3.07;;;3.40;98.90;;;;;;5051142;28;20226;-79
2022/04/01 01:46:25;;;;;;;6.83;3.10;;;3.40;98.90;;;;;;5049475;28;20204;-78
2022/04/01 01:48:50;;;;;;;5.10;3.50;;;3.40;98.80;;;;;;5049193;28;20258;-79
2022/04/01 01:56:45;;;;;;;4.90;3.17;;;3.20;99.10;;;;;;5050469;28;20288;-78
2022/04/01 01:59:11;;;;;;;6.83;3.50;;;3.20;99.20;;;;;;5049882;28;20689;-79
2022/04/01 02:01:42;;;;;;;7.67;3.23;;;3.30;99.20;;;;;;5049315;28;20609;-79
2022/04/01 02:04:07;;;;;;;4.40;2.63;;;3.30;99.20;;;;;;5050620;28;20237;-78
2022/04/01 02:06:33;;;;;;;3.83;2.63;;;3.20;99.10;;;;;;5050682;28;20707;-78
2022/04/01 02:08:59;;;;;;;8.80;3.70;;;3.20;99.10;;;;;;5048715;28;20203;-79
2022/04/01 02:11:25;;;;;;;5.73;3.07;;;3.20;99.40;;;;;;5050233;28;20282;-79
2022/04/01 02:13:51;;;;;;;6.43;3.13;;;3.20;99.50;;;;;;5049309;28;20216;-78
2022/04/01 02:16:17;;;;;;;7.77;3.70;;;3.20;99.70;;;;;;5052091;28;20322;-78
2022/04/01 02:18:42;;;;;;;8.47;3.33;;;3.10;99.90;;;;;;5052212;28;20186;-78
2022/04/01 02:21:11;;;;;;;6.07;3.33;;;3.00;99.90;;;;;;5053631;28;20262;-78
2022/04/01 02:23:43;;;;;;;7.67;3.60;;;3.00;99.90;;;;;;5076421;22;20234;-74
2022/04/01 02:26:09;;;;;;;6.53;3.37;;;2.80;99.90;;;;;;5060490;28;20256;-76
2022/04/01 02:28:35;;;;;;;5.07;3.53;;;2.80;99.90;;;;;;5045237;28;20207;-76
2022/04/01 02:31:01;;;;;;;8.17;4.33;;;2.80;99.90;;;;;;5044745;28;20209;-77
2022/04/01 02:33:27;;;;;;;5.40;3.07;;;2.80;99.90;;;;;;5057357;28;20672;-75
2022/04/01 02:35:59;;;;;;;4.13;3.10;;;2.70;99.90;;;;;;5032779;28;20223;-75
2022/04/01 02:38:25;;;;;;;4.13;2.87;;;2.80;99.90;;;;;;5032934;28;20208;-75
2022/04/01 02:40:53;;;;;;;6.27;3.30;;;2.70;99.90;;;;;;5032595;28;20576;-75
2022/04/01 02:43:19;;;;;;;6.73;3.33;;;2.60;99.90;;;;;;5033846;28;20684;-75
2022/04/01 02:45:45;;;;;;;6.93;3.30;;;2.60;99.90;;;;;;5033707;28;20183;-75
2022/04/01 02:48:11;;;;;;;6.33;3.60;;;2.60;99.90;;;;;;5033659;28;20202;-75
2022/04/01 02:50:37;;;;;;;5.10;3.20;;;2.60;99.90;;;;;;5032414;28;20246;-75
2022/04/01 02:53:02;;;;;;;7.17;3.17;;;2.50;99.90;;;;;;5033891;28;20219;-75
2022/04/01 02:55:28;;;;;;;8.37;3.53;;;2.50;99.90;;;;;;5033430;28;20224;-75
2022/04/01 02:57:53;;;;;;;5.63;2.73;;;2.50;99.90;;;;;;5033608;28;20708;-75
2022/04/01 03:00:21;;;;;;;4.17;2.60;;;2.50;99.90;;;;;;5033238;28;20191;-75
2022/04/01 03:02:47;;;;;;;5.30;3.10;;;2.50;99.90;;;;;;5041094;28;20218;-76
2022/04/01 03:05:13;;;;;;;4.77;3.10;;;2.50;99.90;;;;;;5038332;28;20208;-76
2022/04/01 03:07:39;;;;;;;7.40;3.80;;;2.50;99.90;;;;;;5033431;28;20274;-75
2022/04/01 03:10:05;;;;;;;8.07;3.70;;;2.40;99.90;;;;;;5033311;28;20216;-76
2022/04/01 03:12:30;;;;;;;6.70;3.57;;;2.40;99.90;;;;;;5032864;28;20227;-76
2022/04/01 03:14:56;;;;;;;5.10;3.43;;;2.50;99.90;;;;;;5032309;28;20219;-75
2022/04/01 03:17:22;;;;;;;9.37;3.70;;;2.50;99.90;;;;;;5032111;28;20216;-76
2022/04/01 03:19:47;;;;;;;6.67;3.23;;;2.50;99.90;;;;;;5032980;28;20716;-76
2022/04/01 03:22:13;;;;;;;8.70;3.90;;;2.60;99.90;;;;;;5033594;28;20608;-75
2022/04/01 03:24:38;;;;;;;9.07;3.30;;;2.50;99.90;;;;;;5032313;28;20582;-76
2022/04/01 03:27:04;;;;;;;5.80;3.63;;;2.50;99.90;;;;;;5032670;28;20180;-76
2022/04/01 03:29:32;;;;;;;5.77;3.27;;;2.40;99.90;;;;;;5031320;28;20686;-77
2022/04/01 03:31:57;;;;;;;7.00;3.80;;;2.30;99.90;;;;;;5034290;28;20209;-75
2022/04/01 03:34:23;;;;;;;6.23;3.33;;;2.30;99.90;;;;;;5043952;28;20215;-75
2022/04/01 03:36:48;;;;;;;6.70;3.53;;;2.30;99.90;;;;;;5033296;28;20212;-75
2022/04/01 03:39:15;;;;;;;7.17;3.83;;;2.30;99.90;;;;;;5031651;28;20307;-74
2022/04/01 03:41:41;;;;;;;7.70;3.43;;;2.10;99.90;;;;;;5033432;28;20213;-75
2022/04/01 03:44:06;;;;;;;6.47;3.80;;;2.20;99.90;;;;;;5032581;28;20741;-75
2022/04/01 03:46:48;;;;;;;8.80;3.50;;;2.30;99.90;;;;;;5032460;28;20775;-75
2022/04/01 03:49:21;;;;;;;8.63;4.07;;;2.20;99.90;;;;;;5030152;28;20317;-75
2022/04/01 03:51:49;;;;;;;8.13;4.03;;;2.30;99.90;;;;;;5039522;28;20180;-76
2022/04/01 03:54:16;;;;;;;8.60;3.80;;;2.20;99.90;;;;;;5033011;28;20207;-76
2022/04/01 03:56:47;;;;;;;10.37;3.57;;;2.20;99.90;;;;;;5030691;28;20605;-75
2022/04/01 03:59:12;;;;;;;9.43;3.53;;;2.20;99.90;;;;;;5031830;28;20683;-76
2022/04/01 04:01:38;;;;;;;4.63;3.10;;;2.20;99.90;;;;;;5032260;28;20278;-75
2022/04/01 04:04:05;;;;;;;7.13;3.77;;;2.10;99.90;;;;;;5045827;28;20216;-76
2022/04/01 04:06:34;;;;;;;7.07;3.70;;;2.10;99.90;;;;;;5032529;28;20617;-76
2022/04/01 04:09:03;;;;;;;5.80;3.50;;;2.10;99.90;;;;;;5031765;28;20286;-76
2022/04/01 04:11:31;;;;;;;7.07;3.30;;;2.10;99.90;;;;;;5031025;28;20207;-76
2022/04/01 04:13:59;;;;;;;6.13;3.00;;;2.00;99.90;;;;;;5031084;28;20596;-76
2022/04/01 04:16:31;;;;;;;8.33;3.30;;;2.00;99.90;;;;;;5032059;28;20221;-77
2022/04/01 04:19:04;;;;;;;6.10;3.77;;;2.00;99.90;;;;;;5037079;28;20265;-76
2022/04/01 04:21:55;;;;;;;8.53;3.50;;;2.00;99.90;;;;;;5051208;28;20234;-77
2022/04/01 04:24:29;;;;;;;8.70;2.93;;;2.10;99.90;;;;;;5030839;28;20223;-76
2022/04/01 04:27:05;;;;;;;8.70;3.87;;;2.00;99.90;;;;;;5032335;28;20704;-77
2022/04/01 04:29:33;;;;;;;8.60;3.10;;;2.10;99.90;;;;;;5029872;28;20205;-77
2022/04/01 04:31:59;;;;;;;5.90;3.47;;;2.10;99.90;;;;;;5031159;28;20209;-76
2022/04/01 04:34:28;;;;;;;7.50;3.70;;;2.20;99.90;;;;;;5031556;28;20211;-75
2022/04/01 04:36:57;;;;;;;6.87;3.90;;;2.10;99.90;;;;;;5033435;28;20819;-76
2022/04/01 04:39:32;;;;;;;5.37;3.77;;;2.10;99.90;;;;;;5031283;28;20545;-76
2022/04/01 04:41:58;;;;;;;9.57;3.80;;;2.00;99.90;;;;;;5032160;28;20209;-76
2022/04/01 04:44:30;;;;;;;6.13;3.20;;;2.00;99.90;;;;;;5031854;28;20223;-76
2022/04/01 04:46:56;;;;;;;5.90;3.03;;;2.00;99.90;;;;;;5030467;28;20603;-76
2022/04/01 04:49:22;;;;;;;7.10;2.97;;;1.90;99.90;;;;;;5029889;28;20219;-76
2022/04/01 04:51:48;;;;;;;5.63;3.33;;;1.80;99.90;;;;;;5031125;28;20195;-75
2022/04/01 04:54:15;;;;;;;5.87;3.00;;;1.80;99.90;;;;;;5032976;28;20227;-75
2022/04/01 04:56:41;;;;;;;5.00;3.47;;;1.90;99.90;;;;;;5032730;28;20220;-76
2022/04/01 04:59:09;;;;;;;7.57;3.43;;;1.90;99.90;;;;;;5031942;28;20739;-76
2022/04/01 05:02:09;;;;;;;5.23;3.17;;;1.90;99.90;;;;;;5031863;28;20217;-75
2022/04/01 05:04:56;;;;;;;7.23;3.30;;;1.90;99.90;;;;;;5032023;28;20214;-75
2022/04/01 05:07:29;;;;;;;7.90;3.43;;;1.90;99.90;;;;;;5034303;28;20227;-75
2022/04/01 05:10:09;;;;;;;7.27;3.67;;;1.90;99.90;;;;;;5033177;28;20220;-76
2022/04/01 05:12:44;;;;;;;10.80;3.60;;;2.00;99.90;;;;;;5032049;28;20202;-74
2022/04/01 05:15:11;;;;;;;5.10;3.07;;;2.00;99.90;;;;;;5032007;28;20203;-75
2022/04/01 05:18:02;;;;;;;5.73;3.33;;;2.00;99.90;;;;;;5033089;28;20209;-75
2022/04/01 05:20:29;;;;;;;9.83;3.77;;;1.90;99.90;;;;;;5031522;28;20578;-74
2022/04/01 05:23:15;;;;;;;5.97;3.37;;;1.90;99.90;;;;;;5032034;28;20218;-75
2022/04/01 05:25:58;;;;;;;8.63;3.20;;;2.00;99.90;;;;;;5032557;28;20251;-75
2022/04/01 05:28:28;;;;;;;5.90;3.07;;;2.00;99.90;;;;;;5032853;28;20294;-74
2022/04/01 05:31:12;;;;;;;6.07;2.90;;;2.00;99.90;;;;;;5033669;28;20304;-75
2022/04/01 05:33:53;;;;;;;14.50;3.07;;;2.10;99.90;;;;;;5035186;28;20207;-75
2022/04/01 05:36:19;;;;;;;9.30;3.30;;;2.00;99.90;;;;;;5034701;28;20663;-75
2022/04/01 05:38:46;;;;;;;4.93;2.17;;;1.90;99.90;;;;;;5031996;28;20199;-75
2022/04/01 05:41:12;;;;;;;7.70;3.20;;;1.90;99.90;;;;;;5034790;28;20208;-75
2022/04/01 05:43:38;;;;;;;7.17;3.83;;;2.00;99.90;;;;;;5047151;28;20245;-75
2022/04/01 05:46:05;;;;;;;4.67;3.10;;;2.00;99.90;;;;;;5054312;28;20215;-76
2022/04/01 05:48:32;;;;;;;8.40;3.30;;;2.00;99.90;;;;;;5053612;28;20176;-76
2022/04/01 05:51:00;;;;;;;6.53;3.47;;;2.00;99.90;;;;;;5035697;28;20223;-75
2022/04/01 05:53:26;;;;;;;3.97;2.20;;;1.90;99.90;;;;;;5035003;28;20677;-76
2022/04/01 05:55:54;;;;;;;5.70;2.80;;;1.80;99.90;;;;;;5035009;28;20226;-75
2022/04/01 05:58:19;;;;;;;7.63;3.57;;;1.70;99.90;;;;;;5032986;28;20219;-75
2022/04/01 06:00:54;;;;;;;7.20;3.53;;;1.90;99.90;;;;;;5034732;28;20190;-75
2022/04/01 06:03:44;;;;;;;8.63;3.17;;;2.00;99.90;;;;;;5034107;28;20289;-75
2022/04/01 06:06:15;;;;;;;6.70;2.63;;;2.00;99.90;;;;;;5049135;28;20273;-75
2022/04/01 06:08:56;;;;;;;5.57;3.43;;;2.00;99.90;;;;;;5054365;28;20714;-76
2022/04/01 06:11:43;;;;;;;9.63;3.33;;;1.80;99.90;;;;;;5055997;28;20217;-76
2022/04/01 06:14:27;;;;;;;4.57;2.87;;;1.90;99.90;;;;;;5054397;28;20296;-76
2022/04/01 06:17:26;;;;;;;5.03;2.53;;;2.00;99.90;;;;;;5047098;28;20242;-76
2022/04/01 06:19:56;;;;;;;8.80;3.10;;;1.90;99.90;;;;;;5049998;28;20218;-75
2022/04/01 06:22:24;;;;;;;7.47;2.87;;;1.90;99.90;;;;;;5053034;28;20229;-76
2022/04/01 06:25:12;;;;;;;5.57;2.60;;;2.00;99.90;;;;;;5054818;28;20268;-75
2022/04/01 06:27:42;;;;;;;3.47;2.37;;;2.00;99.90;;;;;;5054276;28;20185;-75
2022/04/01 06:30:10;;;;;;;6.90;2.67;;;2.00;99.90;;;;;;5054251;28;20186;-76
2022/04/01 06:32:48;;;;;;;7.53;3.07;;;2.10;99.90;;;;;;5054302;28;20593;-75
2022/04/01 06:35:18;;;;;;;5.10;2.97;;;2.20;99.90;;;;;;5053946;28;20221;-77
2022/04/01 06:38:05;;;;;;;4.97;2.83;;;2.50;99.90;;;;;;5053455;28;20280;-76
2022/04/01 06:40:44;;;;;;;5.03;2.30;;;2.70;99.90;;;;;;5053860;28;20301;-76
2022/04/01 06:43:10;;;;;;;7.33;3.00;;;2.70;99.90;;;;;;5052250;28;20215;-76
2022/04/01 06:45:35;;;;;;;4.57;2.43;;;3.00;99.90;;;;;;5053068;28;20214;-76
2022/04/01 06:48:01;;;;;;;6.57;2.97;;;2.90;99.90;;;;;;5053652;28;20232;-76
2022/04/01 06:50:26;;;;;;;8.70;3.00;;;3.20;99.90;;;;;;5053507;28;20210;-76
2022/04/01 06:52:52;;;;;;;4.97;2.40;;;3.40;99.90;;;;;;5052295;28;20706;-76
2022/04/01 06:55:18;;;;;;;10.23;2.90;;;3.30;99.90;;;;;;5053592;28;20723;-76
2022/04/01 06:57:43;;;;;;;4.43;2.30;;;3.30;99.90;;;;;;5053103;28;20195;-75
2022/04/01 07:00:13;;;;;;;5.97;2.43;;;3.30;99.90;;;;;;5068879;28;20194;-76
2022/04/01 07:02:42;;;;;;;4.57;2.67;;;3.40;99.90;;;;;;5053349;28;20219;-76
2022/04/01 07:05:11;;;;;;;5.17;2.67;;;3.30;99.90;;;;;;5053471;28;20210;-76
2022/04/01 07:07:39;;;;;;;5.27;2.30;;;3.00;99.90;;;;;;5052182;28;20588;-75
2022/04/01 07:10:06;;;;;;;5.20;2.60;;;3.00;99.90;;;;;;5052044;28;20589;-76
2022/04/01 07:12:32;;;;;;;4.87;2.33;;;3.10;99.90;;;;;;5052926;28;20230;-76
2022/04/01 07:14:57;;;;;;;6.47;2.47;;;3.40;99.90;;;;;;5053575;28;20759;-76
2022/04/01 07:17:24;;;;;;;6.50;2.37;;;3.30;99.90;;;;;;5053694;28;20204;-76
2022/04/01 07:19:50;;;;;;;6.40;2.97;;;3.50;99.90;;;;;;5053376;28;20581;-76
2022/04/01 07:22:15;;;;;;;5.97;3.10;;;3.70;99.90;;;;;;5051716;28;20203;-76
2022/04/01 07:24:41;;;;;;;6.33;2.77;;;3.70;99.90;;;;;;5053282;28;20558;-76
2022/04/01 07:27:06;;;;;;;4.50;2.57;;;3.90;99.90;;;;;;5052122;28;20218;-76
2022/04/01 07:29:32;;;;;;;7.13;2.63;;;4.10;99.90;;;;;;5076451;28;20200;-76
2022/04/01 07:34:43;;;;;;;5.93;2.50;;;4.00;99.90;;;;;;5053536;28;20345;-76
2022/04/01 07:37:10;;;;;;;10.10;2.43;;;4.00;99.90;;;;;;5051849;28;20257;-76
2022/04/01 07:39:36;;;;;;;4.00;2.53;;;3.90;99.90;;;;;;5051959;28;20180;-76
2022/04/01 07:42:03;;;;;;;10.97;3.10;;;3.90;99.90;;;;;;5053554;28;20256;-75
2022/04/01 07:44:28;;;;;;;7.13;2.23;;;3.80;99.90;;;;;;5052636;28;20254;-75
2022/04/01 07:46:55;;;;;;;8.63;3.63;;;4.00;99.90;;;;;;5051861;28;20745;-75
2022/04/01 07:49:21;;;;;;;4.33;2.60;;;4.30;99.90;;;;;;5052997;28;20281;-75
2022/04/01 07:51:46;;;;;;;6.10;2.47;;;4.40;99.90;;;;;;5044993;28;20213;-75
2022/04/01 07:54:16;;;;;;;9.03;2.37;;;4.80;99.90;;;;;;5052415;28;20666;-75
2022/04/01 07:56:42;;;;;;;5.43;3.10;;;4.80;99.90;;;;;;5051375;28;20305;-74
2022/04/01 07:59:09;;;;;;;5.00;2.80;;;4.60;99.90;;;;;;5052071;28;20203;-75
2022/04/01 08:01:35;;;;;;;5.60;2.77;;;5.00;99.90;;;;;;5052639;28;20203;-75
2022/04/01 08:04:01;;;;;;;12.07;2.90;;;4.70;99.90;;;;;;5052268;28;20216;-75
2022/04/01 08:06:26;;;;;;;6.03;2.30;;;5.00;99.90;;;;;;5052864;28;20186;-75
2022/04/01 08:08:55;;;;;;;5.27;2.50;;;5.00;99.90;;;;;;5050181;28;20207;-76
2022/04/01 08:11:22;;;;;;;4.13;3.13;;;5.20;99.90;;;;;;5052732;28;20224;-75
2022/04/01 08:13:47;;;;;;;7.43;2.20;;;5.30;99.90;;;;;;5051835;28;20246;-75
2022/04/01 08:16:13;;;;;;;9.17;2.07;;;5.40;99.90;;;;;;5051052;28;20644;-76
2022/04/01 08:18:39;;;;;;;4.37;2.10;;;5.30;99.90;;;;;;5052393;28;20217;-75
2022/04/01 08:21:04;;;;;;;5.50;2.40;;;5.00;99.90;;;;;;5056391;28;20255;-76
2022/04/01 08:23:34;;;;;;;6.80;2.77;;;5.10;99.90;;;;;;5055092;28;20230;-77
2022/04/01 08:26:01;;;;;;;4.30;2.13;;;5.50;99.90;;;;;;5052975;28;20296;-76
2022/04/01 08:28:27;;;;;;;3.13;1.90;;;5.40;99.90;;;;;;5053137;28;20226;-76
2022/04/01 08:30:53;;;;;;;6.37;2.53;;;5.30;99.60;;;;;;5053372;28;20173;-77
2022/04/01 08:33:20;;;;;;;8.27;2.40;;;5.20;99.90;;;;;;5052956;28;20209;-76
2022/04/01 08:35:49;;;;;;;4.17;2.20;;;5.20;99.70;;;;;;5052662;28;20704;-76
2022/04/01 08:38:15;;;;;;;4.90;2.30;;;5.10;99.60;;;;;;5055961;28;20204;-74
2022/04/01 08:40:41;;;;;;;3.07;2.13;;;5.60;99.50;;;;;;5053547;28;20225;-76
2022/04/01 08:43:06;;;;;;;11.10;3.67;;;5.40;99.50;;;;;;5052448;28;20214;-76
2022/04/01 08:45:33;;;;;;;8.57;2.53;;;5.50;99.10;;;;;;5051987;28;20191;-77
2022/04/01 08:48:01;;;;;;;5.83;2.60;;;5.50;99.00;;;;;;5050395;28;20222;-77
2022/04/01 08:50:26;;;;;;;4.93;2.43;;;6.00;98.60;;;;;;5052374;28;20213;-74
2022/04/01 08:52:52;;;;;;;4.83;2.33;;;6.10;98.10;;;;;;5052414;28;20611;-75
2022/04/01 08:55:19;;;;;;;6.37;2.03;;;6.00;97.70;;;;;;5053407;28;20844;-79
2022/04/01 08:57:45;;;;;;;4.47;2.10;;;6.00;96.90;;;;;;5049877;28;20237;-73
2022/04/01 09:00:13;;;;;;;5.90;1.87;;;5.90;96.50;;;;;;5050992;28;20278;-77
2022/04/01 09:02:39;;;;;;;7.53;1.97;;;6.30;96.00;;;;;;5052201;28;20208;-76
2022/04/01 09:05:06;;;;;;;4.63;1.73;;;6.80;98.00;;;;;;5051750;28;20229;-74
2022/04/01 09:07:31;;;;;;;4.30;1.93;;;6.90;93.90;;;;;;5050354;28;20715;-75
2022/04/01 09:10:07;;;;;;;9.10;2.27;;;6.30;93.40;;;;;;5051063;28;20218;-74
2022/04/01 09:12:35;;;;;;;6.33;1.90;;;6.20;93.50;;;;;;5050905;28;20217;-75
2022/04/01 09:15:03;;;;;;;4.83;2.33;;;6.20;93.50;;;;;;5051605;28;20240;-75
2022/04/01 09:17:45;;;;;;;7.60;2.17;;;6.60;92.80;;;;;;5051085;28;20203;-75
2022/04/01 09:20:11;;;;;;;7.57;2.50;;;6.50;92.80;;;;;;5049763;28;20214;-76
2022/04/01 09:22:37;;;;;;;6.50;2.17;;;6.50;91.80;;;;;;5049914;28;20249;-76
2022/04/01 09:25:06;;;;;;;2.80;1.90;;;6.30;91.70;;;;;;5053787;28;20257;-75
2022/04/01 09:27:42;;;;;;;3.40;1.67;;;6.00;91.40;;;;;;5053533;28;20728;-74
2022/04/01 09:30:30;;;;;;;4.67;2.40;;;6.00;91.60;;;;;;5052601;28;20209;-75
2022/04/01 09:32:58;;;;;;;12.90;4.47;;;6.00;91.50;;;;;;5051693;28;20217;-75
2022/04/01 09:35:28;;;;;;;5.77;1.90;;;6.00;91.70;;;;;;5052791;28;20592;-77
2022/04/01 09:37:58;;;;;;;7.27;2.23;;;6.00;91.40;;;;;;5051948;28;20202;-73
2022/04/01 09:40:24;;;;;;;6.03;2.40;;;6.30;91.60;;;;;;5052833;28;20711;-74
2022/04/01 09:42:52;;;;;;;8.80;2.63;;;6.70;91.60;;;;;;5051085;28;20196;-75
2022/04/01 09:45:20;;;;;;;7.10;2.60;;;6.70;91.60;;;;;;5051124;28;20186;-75
2022/04/01 09:48:02;;;;;;;8.73;2.40;;;6.80;91.60;;;;;;5051504;28;20214;-76
2022/04/01 09:50:31;;;;;;;9.00;2.57;;;6.60;91.80;;;;;;5048726;28;20739;-74
2022/04/01 09:53:11;;;;;;;11.00;3.10;;;6.50;91.70;;;;;;5049285;28;20225;-75
2022/04/01 09:55:38;;;;;;;5.77;2.80;;;6.70;93.30;;;;;;5050714;28;20219;-75
2022/04/01 09:58:06;;;;;;;8.60;2.40;;;7.10;94.20;;;;;;5051915;28;20215;-74
2022/04/01 10:00:32;;;;;;;10.10;2.73;;;6.90;91.30;;;;;;5057606;28;20627;-75
2022/04/01 10:02:59;;;;;;;6.83;2.67;;;6.70;91.80;;;;;;5053280;28;20226;-75
2022/04/01 10:05:25;;;;;;;8.13;2.50;;;6.50;91.70;;;;;;5052906;28;20210;-73
2022/04/01 10:07:53;;;;;;;6.70;2.60;;;6.50;91.80;;;;;;5051555;28;20226;-75
2022/04/01 10:10:18;;;;;;;9.70;2.60;;;6.60;93.30;;;;;;5051221;28;20293;-76
2022/04/01 10:12:47;;;;;;;7.17;2.73;;;7.00;92.00;;;;;;5053602;28;20249;-75
2022/04/01 10:15:13;;;;;;;7.73;2.57;;;7.40;93.50;;;;;;5051753;28;20680;-75
2022/04/01 10:17:40;;;;;;;5.43;2.60;;;7.40;92.10;;;;;;5050292;28;20700;-76
2022/04/01 10:20:08;;;;;;;4.13;2.33;;;7.60;93.10;;;;;;5048740;28;20200;-76
2022/04/01 10:22:35;;;;;;;6.00;2.57;;;7.60;90.90;;;;;;5050337;28;20226;-74
2022/04/01 10:25:29;;;;;;;6.13;2.93;;;7.20;90.60;;;;;;5051252;28;20256;-76
2022/04/01 10:27:55;;;;;;;7.03;2.30;;;7.50;90.50;;;;;;5043514;28;20215;-74
2022/04/01 10:30:24;;;;;;;3.73;2.20;;;7.90;89.40;;;;;;5051526;28;20168;-74
2022/04/01 10:32:50;;;;;;;10.07;2.70;;;8.20;88.00;;;;;;5050533;28;20208;-75
2022/04/01 10:35:38;;;;;;;4.37;2.37;;;8.20;86.60;;;;;;5049054;28;20218;-74
2022/04/01 10:38:06;;;;;;;7.30;2.93;;;7.70;86.90;;;;;;5053706;28;20566;-75
2022/04/01 10:40:36;;;;;;;7.00;2.90;;;7.30;87.90;;;;;;5054281;28;20219;-75
2022/04/01 10:43:16;;;;;;;6.67;2.30;;;7.80;88.20;;;;;;5055662;28;20208;-74
2022/04/01 10:45:58;;;;;;;5.00;2.33;;;7.90;86.40;;;;;;5056178;28;20266;-73
2022/04/01 10:51:36;;;;;;;7.53;2.80;;;7.20;85.20;;;;;;5036091;28;20616;-73
2022/04/01 10:54:12;;;;;;;4.67;2.10;;;7.30;85.40;;;;;;5044256;28;20215;-73
2022/04/01 10:56:41;;;;;;;4.73;2.17;;;7.60;84.90;;;;;;5037208;28;20267;-73
2022/04/01 10:59:12;;;;;;;6.83;2.37;;;7.70;83.80;;;;;;5036964;28;20582;-73
2022/04/01 11:01:39;;;;;;;9.23;2.97;;;7.70;83.40;;;;;;5037300;28;20292;-73
2022/04/01 11:04:10;;;;;;;9.07;2.13;;;7.90;84.00;;;;;;5035313;28;20230;-73
2022/04/01 11:07:01;;;;;;;7.50;2.17;;;8.00;84.20;;;;;;5034213;28;20252;-73
2022/04/01 11:09:50;;;;;;;4.77;2.50;;;8.10;83.10;;;;;;5034235;28;20179;-73
2022/04/01 11:12:15;;;;;;;5.87;2.27;;;8.50;81.90;;;;;;5038664;28;20204;-74
2022/04/01 11:15:07;;;;;;;15.33;8.17;;;8.20;80.90;;;;;;5026305;28;20207;-73
2022/04/01 11:17:35;;;;;;;6.27;2.90;;;8.30;82.20;;;;;;5038963;28;20211;-73
2022/04/01 11:20:14;;;;;;;9.20;2.13;;;8.50;80.40;;;;;;5044876;28;20200;-73
2022/04/01 11:22:46;;;;;;;5.00;1.90;;;8.40;80.20;;;;;;5042934;28;20220;-73
2022/04/01 11:25:33;;;;;;;3.63;2.20;;;8.00;78.40;;;;;;5044525;28;20226;-73
2022/04/01 11:27:59;;;;;;;11.50;2.43;;;7.70;79.10;;;;;;5043693;28;20227;-73
2022/04/01 11:30:26;;;;;;;11.90;6.00;;;7.60;79.20;;;;;;5046107;28;20180;-74
2022/04/01 11:32:56;;;;;;;4.53;2.20;;;7.60;79.90;;;;;;5043120;28;20212;-74
2022/04/01 11:35:23;;;;;;;4.83;1.90;;;7.70;79.40;;;;;;5042634;28;20592;-74
2022/04/01 11:37:49;;;;;;;4.73;2.70;;;7.70;79.70;;;;;;5045846;28;20211;-73
2022/04/01 11:40:28;;;;;;;8.53;2.50;;;7.80;78.90;;;;;;5043589;28;20575;-74
2022/04/01 11:43:02;;;;;;;8.00;2.40;;;8.20;78.70;;;;;;5040327;28;20196;-74
2022/04/01 11:45:29;;;;;;;7.80;2.23;;;8.00;78.70;;;;;;5043341;28;20168;-74
2022/04/01 11:47:54;;;;;;;5.60;2.40;;;7.90;78.90;;;;;;5043126;28;20298;-74
2022/04/01 11:50:22;;;;;;;10.77;3.20;;;8.00;79.30;;;;;;5044576;28;20291;-74
2022/04/01 11:52:54;;;;;;;7.87;3.10;;;8.40;79.00;;;;;;5038553;28;20299;-74
2022/04/01 11:55:22;;;;;;;3.80;2.23;;;8.60;77.80;;;;;;5042570;28;20615;-74
2022/04/01 11:57:49;;;;;;;8.50;2.20;;;8.10;76.40;;;;;;5037077;28;20180;-74
2022/04/01 12:00:16;;;;;;;5.13;1.60;;;7.90;76.90;;;;;;5044349;28;20172;-74
2022/04/01 12:02:44;;;;;;;8.93;2.57;;;7.70;76.70;;;;;;5042209;28;20227;-74
2022/04/01 12:05:10;;;;;;;5.60;2.00;;;7.90;77.70;;;;;;5040281;28;20211;-74
2022/04/01 12:10:25;;;;;;;5.20;2.40;;;8.40;75.40;;;;;;5041655;28;20256;-75
2022/04/01 12:13:03;;;;;;;5.33;2.73;;;8.60;74.80;;;;;;5043039;28;20224;-74
2022/04/01 12:15:37;;;;;;;7.97;2.87;;;8.60;74.70;;;;;;5041781;28;20747;-75
2022/04/01 12:18:17;;;;;;;13.70;3.73;;;8.80;74.40;;;;;;5043895;28;20231;-74
2022/04/01 12:20:44;;;;;;;5.90;3.07;;;9.10;74.40;;;;;;5043572;28;20211;-75
2022/04/01 12:23:10;;;;;;;13.87;5.93;;;9.00;73.50;;;;;;5042527;28;20285;-74
2022/04/01 12:25:37;;;;;;;6.80;2.47;;;9.10;74.20;;;;;;5041653;28;20231;-74
2022/04/01 12:28:08;;;;;;;8.00;2.17;;;9.00;73.40;;;;;;5038397;28;20212;-74
2022/04/01 12:30:39;;;;;;;5.63;3.00;;;8.90;72.90;;;;;;5042752;28;20187;-74
2022/04/01 12:33:07;;;;;;;7.20;2.77;;;8.80;73.00;;;;;;5046384;28;20579;-74
2022/04/01 12:35:34;;;;;;;6.17;2.43;;;8.80;73.70;;;;;;5042552;28;20216;-74
2022/04/01 12:38:09;;;;;;;6.03;2.40;;;9.10;72.50;;;;;;5040132;28;20205;-74
2022/04/01 12:40:44;;;;;;;8.10;2.10;;;8.40;72.50;;;;;;5042599;28;20883;-73
2022/04/01 12:43:43;;;;;;;13.83;2.50;;;8.20;73.80;;;;;;5037405;28;20212;-74
2022/04/01 12:46:16;;;;;;;10.03;2.23;;;8.10;73.30;;;;;;5038768;28;20217;-72
2022/04/01 12:48:49;;;;;;;9.27;1.83;;;8.00;73.60;;;;;;5042198;28;20245;-75
2022/04/01 12:51:20;;;;;;;5.73;2.83;;;8.10;72.70;;;;;;5046391;28;20656;-74
2022/04/01 12:54:12;;;;;;;4.30;2.10;;;8.40;72.10;;;;;;5044625;28;20723;-75
2022/04/01 12:56:43;;;;;;;3.63;1.90;;;8.20;72.20;;;;;;5042449;28;20226;-75
2022/04/01 12:59:13;;;;;;;5.70;1.70;;;8.30;72.90;;;;;;5039174;28;20204;-74
2022/04/01 13:01:43;;;;;;;3.70;1.87;;;8.10;73.60;;;;;;5043708;28;20222;-75
2022/04/01 13:04:17;;;;;;;10.00;2.33;;;8.00;73.00;;;;;;5042523;28;20211;-75
2022/04/01 13:06:43;;;;;;;4.57;2.10;;;8.10;73.60;;;;;;5038803;28;20594;-74
2022/04/01 13:09:10;;;;;;;5.10;2.20;;;8.50;73.50;;;;;;5040095;28;20218;-74
2022/04/01 13:11:48;;;;;;;9.33;2.07;;;8.80;72.90;;;;;;5041686;28;20216;-75
2022/04/01 13:14:20;;;;;;;4.90;2.13;;;8.90;72.70;;;;;;5048552;28;20207;-74
2022/04/01 13:16:46;;;;;;;8.60;2.40;;;8.60;72.90;;;;;;5041032;28;20216;-74
2022/04/01 13:19:30;;;;;;;6.83;2.80;;;8.60;73.50;;;;;;5050757;28;20215;-73
2022/04/01 13:22:04;;;;;;;6.10;1.80;;;8.80;73.40;;;;;;5052368;28;20211;-74